createdAt,value
2016-09-16T00:00:39.889Z,0
2016-09-16T00:01:40.034Z,0
2016-09-16T00:02:39.879Z,0
2016-09-16T00:03:39.900Z,0
2016-09-16T00:04:39.878Z,0
2016-09-16T00:05:39.901Z,0
2016-09-16T00:06:39.872Z,0
2016-09-16T00:07:39.898Z,0
2016-09-16T00:08:39.870Z,0
2016-09-16T00:09:39.856Z,0
2016-09-16T00:10:40.409Z,0
2016-09-16T00:11:39.869Z,0
2016-09-16T00:12:39.846Z,0
2016-09-16T00:13:39.834Z,0
2016-09-16T00:14:39.841Z,0
2016-09-16T00:15:39.827Z,0
2016-09-16T00:16:39.833Z,0
2016-09-16T00:17:39.865Z,0
2016-09-16T00:18:39.819Z,0
2016-09-16T00:19:40.001Z,0
2016-09-16T00:20:39.802Z,0
2016-09-16T00:21:39.796Z,0
2016-09-16T00:22:39.806Z,0
2016-09-16T00:23:39.791Z,0
2016-09-16T00:24:39.801Z,0
2016-09-16T00:25:39.774Z,0
2016-09-16T00:26:39.796Z,0
2016-09-16T00:27:39.777Z,0
2016-09-16T00:28:40.443Z,0
2016-09-16T00:29:40.432Z,0
2016-09-16T00:30:39.975Z,0
2016-09-16T00:31:39.759Z,0
2016-09-16T00:32:40.166Z,0
2016-09-16T00:33:40.478Z,0
2016-09-16T00:34:40.359Z,0
2016-09-16T00:35:39.971Z,0
2016-09-16T00:36:39.741Z,0
2016-09-16T00:37:40.210Z,0
2016-09-16T00:38:39.755Z,0
2016-09-16T00:39:40.112Z,0
2016-09-16T00:40:39.864Z,0
2016-09-16T00:41:39.727Z,0
2016-09-16T00:42:39.726Z,0
2016-09-16T00:43:39.730Z,0
2016-09-16T00:44:39.719Z,0
2016-09-16T00:45:39.753Z,0
2016-09-16T00:46:39.705Z,0
2016-09-16T00:47:39.735Z,0
2016-09-16T00:48:40.266Z,0
2016-09-16T00:49:54.559Z,0
2016-09-16T00:50:39.697Z,0
2016-09-16T00:51:39.687Z,0
2016-09-16T00:52:39.684Z,0
2016-09-16T00:53:39.676Z,0
2016-09-16T00:54:39.684Z,0
2016-09-16T00:55:39.656Z,0
2016-09-16T00:56:39.656Z,0
2016-09-16T00:57:39.730Z,0
2016-09-16T00:58:40.053Z,0
2016-09-16T00:59:39.648Z,0
2016-09-16T01:00:39.667Z,0
2016-09-16T01:01:40.183Z,0
2016-09-16T01:02:39.662Z,0
2016-09-16T01:03:39.648Z,0
2016-09-16T01:04:39.837Z,0
2016-09-16T01:05:40.167Z,0
2016-09-16T01:06:39.635Z,0
2016-09-16T01:07:39.621Z,0
2016-09-16T01:08:39.612Z,0
2016-09-16T01:09:39.623Z,0
2016-09-16T01:10:39.626Z,0
2016-09-16T01:11:39.599Z,0
2016-09-16T01:12:40.027Z,0
2016-09-16T01:13:39.605Z,0
2016-09-16T01:14:39.587Z,0
2016-09-16T01:15:39.595Z,0
2016-09-16T01:16:39.629Z,0
2016-09-16T01:17:39.584Z,0
2016-09-16T01:18:39.582Z,0
2016-09-16T01:19:39.600Z,0
2016-09-16T01:20:39.605Z,0
2016-09-16T01:21:40.178Z,0
2016-09-16T01:22:39.572Z,0
2016-09-16T01:23:39.546Z,0
2016-09-16T01:24:39.576Z,0
2016-09-16T01:25:39.595Z,0
2016-09-16T01:26:39.549Z,0
2016-09-16T01:27:39.552Z,0
2016-09-16T01:28:39.538Z,0
2016-09-16T01:29:39.537Z,0
2016-09-16T01:30:39.534Z,0
2016-09-16T01:31:39.739Z,0
2016-09-16T01:32:39.528Z,0
2016-09-16T01:33:39.847Z,0
2016-09-16T01:34:39.524Z,0
2016-09-16T01:35:39.503Z,0
2016-09-16T01:36:39.529Z,0
2016-09-16T01:37:39.717Z,0
2016-09-16T01:38:39.492Z,0
2016-09-16T01:39:39.491Z,0
2016-09-16T01:40:39.498Z,0
2016-09-16T01:41:39.483Z,0
2016-09-16T01:42:39.514Z,0
2016-09-16T01:43:39.492Z,0
2016-09-16T01:44:42.535Z,0
2016-09-16T01:45:39.476Z,0
2016-09-16T01:46:39.485Z,0
2016-09-16T01:47:39.456Z,0
2016-09-16T01:48:39.451Z,0
2016-09-16T01:49:39.459Z,0
2016-09-16T01:50:39.452Z,0
2016-09-16T01:51:39.447Z,0
2016-09-16T01:52:39.440Z,0
2016-09-16T01:53:39.438Z,0
2016-09-16T01:54:54.313Z,0
2016-09-16T01:55:39.441Z,0
2016-09-16T01:56:39.423Z,0
2016-09-16T01:57:39.414Z,0
2016-09-16T01:58:39.427Z,0
2016-09-16T01:59:39.417Z,0
2016-09-16T02:00:39.420Z,0
2016-09-16T02:01:39.711Z,0
2016-09-16T02:02:39.398Z,0
2016-09-16T02:03:39.399Z,0
2016-09-16T02:04:39.403Z,0
2016-09-16T02:05:39.421Z,0
2016-09-16T02:06:39.387Z,0
2016-09-16T02:07:39.380Z,0
2016-09-16T02:08:39.566Z,0
2016-09-16T02:09:39.377Z,0
2016-09-16T02:10:39.716Z,0
2016-09-16T02:11:39.593Z,0
2016-09-16T02:12:39.362Z,0
2016-09-16T02:13:39.345Z,0
2016-09-16T02:14:39.354Z,0
2016-09-16T02:15:39.336Z,0
2016-09-16T02:16:39.363Z,0
2016-09-16T02:17:39.332Z,0
2016-09-16T02:18:39.346Z,0
2016-09-16T02:19:39.339Z,0
2016-09-16T02:20:39.355Z,0
2016-09-16T02:21:39.324Z,0
2016-09-16T02:22:39.516Z,0
2016-09-16T02:23:39.395Z,0
2016-09-16T02:24:39.312Z,0
2016-09-16T02:25:39.301Z,0
2016-09-16T02:26:39.313Z,0
2016-09-16T02:27:39.342Z,0
2016-09-16T02:28:39.284Z,0
2016-09-16T02:29:39.326Z,0
2016-09-16T02:30:39.291Z,0
2016-09-16T02:31:39.279Z,0
2016-09-16T02:32:39.262Z,0
2016-09-16T02:33:39.261Z,0
2016-09-16T02:34:39.265Z,0
2016-09-16T02:35:39.292Z,0
2016-09-16T02:36:39.258Z,0
2016-09-16T02:37:39.251Z,0
2016-09-16T02:38:39.254Z,0
2016-09-16T02:39:39.225Z,0
2016-09-16T02:40:39.223Z,0
2016-09-16T02:41:39.223Z,0
2016-09-16T02:42:39.225Z,0
2016-09-16T02:43:39.240Z,0
2016-09-16T02:44:39.237Z,0
2016-09-16T02:45:39.204Z,0
2016-09-16T02:46:39.515Z,0
2016-09-16T02:47:39.413Z,0
2016-09-16T02:48:39.196Z,0
2016-09-16T02:49:39.191Z,0
2016-09-16T02:50:39.186Z,0
2016-09-16T02:51:39.178Z,0
2016-09-16T02:52:39.197Z,0
2016-09-16T02:53:39.173Z,0
2016-09-16T02:54:39.170Z,0
2016-09-16T02:55:39.164Z,0
2016-09-16T02:56:39.171Z,0
2016-09-16T02:57:39.154Z,0
2016-09-16T02:58:39.145Z,0
2016-09-16T02:59:39.167Z,0
2016-09-16T03:00:39.142Z,0
2016-09-16T03:01:39.464Z,0
2016-09-16T03:02:39.158Z,0
2016-09-16T03:03:39.125Z,0
2016-09-16T03:04:39.128Z,0
2016-09-16T03:05:39.449Z,0
2016-09-16T03:06:39.106Z,0
2016-09-16T03:07:39.135Z,0
2016-09-16T03:08:39.113Z,0
2016-09-16T03:09:39.095Z,0
2016-09-16T03:10:39.101Z,0
2016-09-16T03:11:39.080Z,0
2016-09-16T03:12:39.085Z,0
2016-09-16T03:13:39.741Z,0
2016-09-16T03:14:39.078Z,0
2016-09-16T03:15:39.075Z,0
2016-09-16T03:16:39.073Z,0
2016-09-16T03:17:39.065Z,0
2016-09-16T03:18:39.057Z,0
2016-09-16T03:19:39.067Z,0
2016-09-16T03:20:39.048Z,0
2016-09-16T03:21:39.052Z,0
2016-09-16T03:22:39.047Z,0
2016-09-16T03:23:39.038Z,0
2016-09-16T03:24:39.036Z,0
2016-09-16T03:25:39.023Z,0
2016-09-16T03:26:39.018Z,0
2016-09-16T03:27:39.028Z,0
2016-09-16T03:28:39.016Z,0
2016-09-16T03:29:39.345Z,0
2016-09-16T03:30:39.017Z,0
2016-09-16T03:31:39.015Z,0
2016-09-16T03:32:39.004Z,0
2016-09-16T03:33:38.990Z,0
2016-09-16T03:34:38.999Z,0
2016-09-16T03:35:38.990Z,0
2016-09-16T03:36:38.999Z,0
2016-09-16T03:37:39.312Z,0
2016-09-16T03:38:38.992Z,0
2016-09-16T03:39:39.289Z,0
2016-09-16T03:40:39.302Z,0
2016-09-16T03:41:38.953Z,0
2016-09-16T03:42:38.945Z,0
2016-09-16T03:43:38.964Z,0
2016-09-16T03:44:39.274Z,0
2016-09-16T03:45:39.258Z,0
2016-09-16T03:46:38.958Z,0
2016-09-16T03:47:39.267Z,0
2016-09-16T03:48:39.255Z,0
2016-09-16T03:49:38.919Z,0
2016-09-16T03:50:38.942Z,0
2016-09-16T03:51:38.915Z,0
2016-09-16T03:52:39.235Z,0
2016-09-16T03:53:39.225Z,0
2016-09-16T03:54:39.218Z,0
2016-09-16T03:55:38.916Z,0
2016-09-16T03:56:38.896Z,0
2016-09-16T03:57:38.906Z,0
2016-09-16T03:58:39.209Z,0
2016-09-16T03:59:38.872Z,0
2016-09-16T04:00:38.880Z,0
2016-09-16T04:01:38.858Z,0
2016-09-16T04:02:38.861Z,0
2016-09-16T04:03:39.179Z,0
2016-09-16T04:04:38.859Z,0
2016-09-16T04:05:39.187Z,0
2016-09-16T04:06:38.850Z,0
2016-09-16T04:07:38.829Z,0
2016-09-16T04:08:38.825Z,0
2016-09-16T04:09:38.841Z,0
2016-09-16T04:10:38.822Z,0
2016-09-16T04:11:38.829Z,0
2016-09-16T04:12:38.820Z,0
2016-09-16T04:13:38.819Z,0
2016-09-16T04:14:38.826Z,4
2016-09-16T04:15:38.811Z,4
2016-09-16T04:16:38.809Z,0
2016-09-16T04:17:38.807Z,0
2016-09-16T04:18:38.796Z,4
2016-09-16T04:19:38.796Z,0
2016-09-16T04:20:38.791Z,4
2016-09-16T04:21:38.795Z,4
2016-09-16T04:22:38.780Z,4
2016-09-16T04:23:38.800Z,4
2016-09-16T04:24:39.407Z,4
2016-09-16T04:25:38.765Z,8
2016-09-16T04:26:39.405Z,8
2016-09-16T04:27:38.752Z,12
2016-09-16T04:28:38.747Z,16
2016-09-16T04:29:39.066Z,16
2016-09-16T04:30:38.753Z,16
2016-09-16T04:31:38.740Z,20
2016-09-16T04:32:39.066Z,24
2016-09-16T04:33:38.718Z,32
2016-09-16T04:34:38.736Z,36
2016-09-16T04:35:38.720Z,40
2016-09-16T04:36:38.728Z,48
2016-09-16T04:37:38.711Z,56
2016-09-16T04:38:38.719Z,60
2016-09-16T04:39:38.718Z,72
2016-09-16T04:40:38.709Z,80
2016-09-16T04:41:38.679Z,92
2016-09-16T04:42:38.688Z,104
2016-09-16T04:43:38.673Z,116
2016-09-16T04:44:38.686Z,128
2016-09-16T04:45:38.679Z,140
2016-09-16T04:46:38.669Z,156
2016-09-16T04:47:38.979Z,168
2016-09-16T04:48:38.676Z,188
2016-09-16T04:49:38.669Z,204
2016-09-16T04:50:38.642Z,224
2016-09-16T04:51:38.647Z,244
2016-09-16T04:52:38.637Z,268
2016-09-16T04:53:38.640Z,288
2016-09-16T04:54:38.639Z,308
2016-09-16T04:55:38.622Z,332
2016-09-16T04:56:38.624Z,352
2016-09-16T04:57:38.630Z,376
2016-09-16T04:58:38.633Z,404
2016-09-16T04:59:38.611Z,428
2016-09-16T05:00:38.615Z,452
2016-09-16T05:01:38.610Z,480
2016-09-16T05:02:38.591Z,508
2016-09-16T05:03:38.589Z,536
2016-09-16T05:04:38.601Z,568
2016-09-16T05:05:38.595Z,600
2016-09-16T05:06:38.592Z,632
2016-09-16T05:07:38.576Z,668
2016-09-16T05:08:38.580Z,704
2016-09-16T05:09:38.573Z,744
2016-09-16T05:10:38.555Z,776
2016-09-16T05:11:38.556Z,804
2016-09-16T05:12:38.556Z,832
2016-09-16T05:13:38.558Z,856
2016-09-16T05:14:38.563Z,880
2016-09-16T05:15:38.557Z,908
2016-09-16T05:16:38.533Z,940
2016-09-16T05:17:38.840Z,980
2016-09-16T05:18:38.852Z,1028
2016-09-16T05:19:38.534Z,1076
2016-09-16T05:20:38.519Z,1120
2016-09-16T05:21:38.524Z,1168
2016-09-16T05:22:38.503Z,1208
2016-09-16T05:23:38.521Z,1248
2016-09-16T05:24:38.823Z,1280
2016-09-16T05:25:38.832Z,1312
2016-09-16T05:26:38.499Z,1348
2016-09-16T05:27:38.494Z,1380
2016-09-16T05:28:38.480Z,1416
2016-09-16T05:29:38.498Z,1448
2016-09-16T05:30:38.469Z,1488
2016-09-16T05:31:38.491Z,1528
2016-09-16T05:32:38.492Z,1572
2016-09-16T05:33:38.485Z,1612
2016-09-16T05:34:38.461Z,1656
2016-09-16T05:35:38.472Z,1692
2016-09-16T05:36:38.461Z,1724
2016-09-16T05:37:38.453Z,1764
2016-09-16T05:38:38.441Z,1808
2016-09-16T05:39:38.424Z,1848
2016-09-16T05:40:38.441Z,1888
2016-09-16T05:41:38.441Z,1924
2016-09-16T05:42:38.440Z,1960
2016-09-16T05:43:38.407Z,1992
2016-09-16T05:44:38.416Z,2028
2016-09-16T05:45:38.727Z,2072
2016-09-16T05:46:38.725Z,2120
2016-09-16T05:47:38.396Z,2164
2016-09-16T05:48:38.387Z,2200
2016-09-16T05:49:38.711Z,2240
2016-09-16T05:50:38.392Z,2272
2016-09-16T05:51:38.425Z,2316
2016-09-16T05:52:38.683Z,2360
2016-09-16T05:53:38.371Z,2404
2016-09-16T05:54:38.354Z,2452
2016-09-16T05:55:38.358Z,2484
2016-09-16T05:56:38.359Z,2508
2016-09-16T05:57:38.348Z,2480
2016-09-16T05:58:38.354Z,2496
2016-09-16T05:59:38.340Z,2644
2016-09-16T06:00:38.343Z,2684
2016-09-16T06:01:38.324Z,2720
2016-09-16T06:02:38.329Z,2736
2016-09-16T06:03:38.323Z,2732
2016-09-16T06:04:38.331Z,2832
2016-09-16T06:05:38.316Z,2872
2016-09-16T06:06:38.317Z,2908
2016-09-16T06:07:38.329Z,2948
2016-09-16T06:08:38.296Z,2988
2016-09-16T06:09:38.342Z,3040
2016-09-16T06:10:38.287Z,3124
2016-09-16T06:11:38.286Z,3168
2016-09-16T06:12:38.288Z,3196
2016-09-16T06:13:38.279Z,3200
2016-09-16T06:14:38.276Z,3216
2016-09-16T06:15:38.269Z,3192
2016-09-16T06:16:38.285Z,3180
2016-09-16T06:17:38.285Z,3144
2016-09-16T06:18:38.294Z,3220
2016-09-16T06:19:38.255Z,3292
2016-09-16T06:20:38.257Z,3320
2016-09-16T06:21:38.565Z,3328
2016-09-16T06:22:38.234Z,3320
2016-09-16T06:23:38.236Z,3320
2016-09-16T06:24:38.243Z,3224
2016-09-16T06:25:38.266Z,3120
2016-09-16T06:26:38.245Z,3240
2016-09-16T06:27:38.256Z,3280
2016-09-16T06:28:38.240Z,3240
2016-09-16T06:29:38.224Z,3240
2016-09-16T06:30:38.214Z,3160
2016-09-16T06:31:38.212Z,3148
2016-09-16T06:32:38.525Z,3336
2016-09-16T06:33:38.203Z,3356
2016-09-16T06:34:38.203Z,3372
2016-09-16T06:35:38.196Z,3368
2016-09-16T06:36:38.196Z,3316
2016-09-16T06:37:38.226Z,3372
2016-09-16T06:38:38.183Z,3420
2016-09-16T06:39:38.173Z,3448
2016-09-16T06:40:38.182Z,3448
2016-09-16T06:41:38.188Z,3456
2016-09-16T06:42:38.172Z,3512
2016-09-16T06:43:38.176Z,3572
2016-09-16T06:44:38.159Z,3612
2016-09-16T06:45:38.467Z,3652
2016-09-16T06:46:38.162Z,3676
2016-09-16T06:47:38.200Z,3688
2016-09-16T06:48:38.139Z,3712
2016-09-16T06:49:38.150Z,3744
2016-09-16T06:50:38.138Z,3764
2016-09-16T06:51:38.203Z,3772
2016-09-16T06:52:38.141Z,3796
2016-09-16T06:53:38.142Z,3824
2016-09-16T06:54:38.125Z,3880
2016-09-16T06:55:38.438Z,3908
2016-09-16T06:56:38.122Z,3944
2016-09-16T06:57:38.108Z,3972
2016-09-16T06:58:38.121Z,3988
2016-09-16T06:59:38.103Z,3988
2016-09-16T07:00:38.115Z,3992
2016-09-16T07:01:38.107Z,4020
2016-09-16T07:02:38.108Z,4048
2016-09-16T07:03:38.107Z,4064
2016-09-16T07:04:38.099Z,4092
2016-09-16T07:05:38.102Z,4120
2016-09-16T07:06:38.082Z,4160
2016-09-16T07:07:38.100Z,4196
2016-09-16T07:08:38.081Z,4224
2016-09-16T07:09:38.079Z,4204
2016-09-16T07:10:38.083Z,4236
2016-09-16T07:11:38.067Z,4284
2016-09-16T07:12:38.082Z,4328
2016-09-16T07:13:38.082Z,4324
2016-09-16T07:14:38.062Z,4324
2016-09-16T07:15:38.077Z,4324
2016-09-16T07:16:38.065Z,4292
2016-09-16T07:17:38.383Z,4316
2016-09-16T07:18:38.065Z,4332
2016-09-16T07:19:38.051Z,4340
2016-09-16T07:20:38.063Z,4324
2016-09-16T07:21:38.044Z,4320
2016-09-16T07:22:38.044Z,4340
2016-09-16T07:23:38.051Z,4360
2016-09-16T07:24:38.052Z,4376
2016-09-16T07:25:38.125Z,4452
2016-09-16T07:26:38.120Z,4524
2016-09-16T07:27:38.104Z,4588
2016-09-16T07:28:38.024Z,4572
2016-09-16T07:29:38.024Z,4284
2016-09-16T07:30:38.031Z,4344
2016-09-16T07:31:38.036Z,4604
2016-09-16T07:32:38.039Z,4556
2016-09-16T07:33:38.032Z,4332
2016-09-16T07:34:38.025Z,4508
2016-09-16T07:35:38.022Z,4812
2016-09-16T07:36:38.080Z,5204
2016-09-16T07:37:38.021Z,5496
2016-09-16T07:38:38.018Z,5808
2016-09-16T07:39:38.008Z,5992
2016-09-16T07:40:38.029Z,5864
2016-09-16T07:41:38.021Z,5612
2016-09-16T07:42:37.995Z,5920
2016-09-16T07:43:38.049Z,6012
2016-09-16T07:44:38.006Z,6000
2016-09-16T07:45:38.010Z,6008
2016-09-16T07:46:38.010Z,5908
2016-09-16T07:47:37.999Z,5760
2016-09-16T07:48:38.000Z,5624
2016-09-16T07:49:37.993Z,5520
2016-09-16T07:50:37.997Z,5400
2016-09-16T07:51:38.033Z,5252
2016-09-16T07:52:37.987Z,5264
2016-09-16T07:53:37.984Z,5216
2016-09-16T07:54:37.980Z,5148
2016-09-16T07:55:37.977Z,5096
2016-09-16T07:56:37.985Z,5056
2016-09-16T07:57:38.299Z,5036
2016-09-16T07:58:37.984Z,4988
2016-09-16T07:59:37.975Z,4964
2016-09-16T08:00:37.972Z,4984
2016-09-16T08:01:37.979Z,5004
2016-09-16T08:02:37.992Z,5020
2016-09-16T08:03:37.996Z,5012
2016-09-16T08:04:37.999Z,4892
2016-09-16T08:05:38.292Z,4828
2016-09-16T08:06:37.975Z,4824
2016-09-16T08:07:37.963Z,4844
2016-09-16T08:08:37.972Z,4992
2016-09-16T08:09:37.980Z,5128
2016-09-16T08:10:37.986Z,5248
2016-09-16T08:11:38.305Z,5284
2016-09-16T08:12:37.958Z,5312
2016-09-16T08:13:37.957Z,5388
2016-09-16T08:14:37.968Z,5544
2016-09-16T08:15:37.987Z,5708
2016-09-16T08:16:37.979Z,5728
2016-09-16T08:17:37.964Z,5464
2016-09-16T08:18:37.971Z,5372
2016-09-16T08:19:37.954Z,5312
2016-09-16T08:20:37.957Z,5244
2016-09-16T08:21:38.593Z,5296
2016-09-16T08:22:37.976Z,5312
2016-09-16T08:23:37.949Z,5328
2016-09-16T08:24:37.955Z,5512
2016-09-16T08:25:37.953Z,5796
2016-09-16T08:26:37.945Z,6016
2016-09-16T08:27:37.954Z,6124
2016-09-16T08:28:37.965Z,6276
2016-09-16T08:29:37.964Z,6336
2016-09-16T08:30:37.968Z,6240
2016-09-16T08:31:37.956Z,6164
2016-09-16T08:32:37.952Z,6068
2016-09-16T08:33:37.955Z,5992
2016-09-16T08:34:37.962Z,5824
2016-09-16T08:35:37.971Z,5776
2016-09-16T08:36:37.958Z,5788
2016-09-16T08:37:37.957Z,5872
2016-09-16T08:38:37.967Z,5964
2016-09-16T08:39:37.949Z,6068
2016-09-16T08:40:37.945Z,6112
2016-09-16T08:41:37.955Z,6228
2016-09-16T08:42:37.959Z,6316
2016-09-16T08:43:37.966Z,6404
2016-09-16T08:44:37.955Z,6500
2016-09-16T08:45:37.950Z,6692
2016-09-16T08:46:37.945Z,6800
2016-09-16T08:47:38.265Z,6860
2016-09-16T08:48:37.954Z,6988
2016-09-16T08:49:37.951Z,7084
2016-09-16T08:50:37.950Z,7272
2016-09-16T08:51:38.005Z,7584
2016-09-16T08:52:37.963Z,7732
2016-09-16T08:53:37.945Z,7928
2016-09-16T08:54:37.952Z,8100
2016-09-16T08:55:37.949Z,8380
2016-09-16T08:56:37.964Z,8788
2016-09-16T08:57:37.939Z,9236
2016-09-16T08:58:37.951Z,9556
2016-09-16T08:59:37.955Z,9676
2016-09-16T09:00:37.961Z,9720
2016-09-16T09:01:37.951Z,9628
2016-09-16T09:02:37.963Z,9348
2016-09-16T09:03:37.949Z,8976
2016-09-16T09:04:37.957Z,8560
2016-09-16T09:05:37.942Z,8228
2016-09-16T09:06:37.965Z,8108
2016-09-16T09:07:38.276Z,8124
2016-09-16T09:08:37.945Z,8212
2016-09-16T09:09:37.944Z,8364
2016-09-16T09:10:38.354Z,8508
2016-09-16T09:11:37.950Z,8636
2016-09-16T09:12:37.935Z,8800
2016-09-16T09:13:37.943Z,9016
2016-09-16T09:14:37.943Z,9244
2016-09-16T09:15:37.944Z,9464
2016-09-16T09:16:37.965Z,9732
2016-09-16T09:17:37.939Z,10048
2016-09-16T09:18:37.968Z,10624
2016-09-16T09:19:37.949Z,11164
2016-09-16T09:20:37.951Z,11716
2016-09-16T09:21:37.956Z,12408
2016-09-16T09:22:37.966Z,12912
2016-09-16T09:23:38.266Z,13144
2016-09-16T09:24:37.961Z,13076
2016-09-16T09:25:38.267Z,12708
2016-09-16T09:26:37.960Z,12176
2016-09-16T09:27:37.954Z,11604
2016-09-16T09:28:37.947Z,11252
2016-09-16T09:29:37.947Z,11012
2016-09-16T09:30:37.957Z,10860
2016-09-16T09:31:37.956Z,10776
2016-09-16T09:32:37.964Z,10648
2016-09-16T09:33:37.956Z,10224
2016-09-16T09:34:37.965Z,9736
2016-09-16T09:35:37.956Z,9248
2016-09-16T09:36:37.967Z,9020
2016-09-16T09:37:37.969Z,8944
2016-09-16T09:38:37.976Z,8980
2016-09-16T09:39:37.969Z,9064
2016-09-16T09:40:37.963Z,9144
2016-09-16T09:41:37.968Z,9244
2016-09-16T09:42:37.972Z,9396
2016-09-16T09:43:37.979Z,9660
2016-09-16T09:44:37.965Z,9908
2016-09-16T09:45:37.970Z,10148
2016-09-16T09:46:37.971Z,10376
2016-09-16T09:47:37.987Z,10592
2016-09-16T09:48:37.982Z,10792
2016-09-16T09:49:37.979Z,10884
2016-09-16T09:50:37.973Z,10896
2016-09-16T09:51:38.033Z,10788
2016-09-16T09:52:37.975Z,10652
2016-09-16T09:53:37.967Z,10436
2016-09-16T09:54:38.001Z,10048
2016-09-16T09:55:37.969Z,9608
2016-09-16T09:56:38.305Z,9132
2016-09-16T09:57:37.984Z,8732
2016-09-16T09:58:37.987Z,8392
2016-09-16T09:59:38.312Z,8008
2016-09-16T10:00:37.989Z,7640
2016-09-16T10:01:38.005Z,7496
2016-09-16T10:02:37.999Z,7324
2016-09-16T10:03:38.016Z,6988
2016-09-16T10:04:37.999Z,6904
2016-09-16T10:05:37.995Z,6728
2016-09-16T10:06:38.315Z,6668
2016-09-16T10:07:37.994Z,6804
2016-09-16T10:08:37.993Z,7028
2016-09-16T10:09:38.001Z,7448
2016-09-16T10:10:38.010Z,7832
2016-09-16T10:11:38.003Z,8388
2016-09-16T10:12:38.006Z,8948
2016-09-16T10:13:38.011Z,9448
2016-09-16T10:14:38.012Z,9860
2016-09-16T10:15:38.026Z,10156
2016-09-16T10:16:38.016Z,10316
2016-09-16T10:17:38.010Z,10564
2016-09-16T10:18:38.337Z,10912
2016-09-16T10:19:38.024Z,11192
2016-09-16T10:20:38.027Z,11460
2016-09-16T10:21:38.008Z,11696
2016-09-16T10:22:38.012Z,11908
2016-09-16T10:23:38.335Z,11920
2016-09-16T10:24:38.041Z,11676
2016-09-16T10:25:38.025Z,11228
2016-09-16T10:26:38.022Z,10856
2016-09-16T10:27:38.017Z,10884
2016-09-16T10:28:38.039Z,11164
2016-09-16T10:29:38.028Z,11376
2016-09-16T10:30:38.033Z,11652
2016-09-16T10:31:38.037Z,11876
2016-09-16T10:32:38.029Z,11760
2016-09-16T10:33:38.030Z,11312
2016-09-16T10:34:38.038Z,10528
2016-09-16T10:35:38.045Z,9668
2016-09-16T10:36:38.042Z,8844
2016-09-16T10:37:38.046Z,8252
2016-09-16T10:38:38.043Z,7916
2016-09-16T10:39:38.057Z,7528
2016-09-16T10:40:38.042Z,7288
2016-09-16T10:41:38.052Z,7368
2016-09-16T10:42:38.040Z,7712
2016-09-16T10:43:38.048Z,8212
2016-09-16T10:44:38.053Z,8988
2016-09-16T10:45:38.134Z,9320
2016-09-16T10:46:38.061Z,9316
2016-09-16T10:47:38.057Z,9736
2016-09-16T10:48:38.065Z,10476
2016-09-16T10:49:38.059Z,10788
2016-09-16T10:50:38.053Z,11020
2016-09-16T10:51:38.077Z,10864
2016-09-16T10:52:38.069Z,11068
2016-09-16T10:53:38.065Z,12180
2016-09-16T10:54:38.079Z,13280
2016-09-16T10:55:38.079Z,14048
2016-09-16T10:56:38.095Z,14288
2016-09-16T10:57:38.088Z,13864
2016-09-16T10:58:38.083Z,13424
2016-09-16T10:59:38.094Z,13348
2016-09-16T11:00:38.083Z,13324
2016-09-16T11:01:38.084Z,12688
2016-09-16T11:02:38.401Z,11832
2016-09-16T11:03:38.088Z,11168
2016-09-16T11:04:38.083Z,10600
2016-09-16T11:05:38.102Z,9764
2016-09-16T11:06:38.151Z,9300
2016-09-16T11:07:38.098Z,9304
2016-09-16T11:08:38.100Z,9636
2016-09-16T11:09:38.443Z,9848
2016-09-16T11:10:38.121Z,9696
2016-09-16T11:11:38.114Z,9384
2016-09-16T11:12:38.112Z,8928
2016-09-16T11:13:38.120Z,8724
2016-09-16T11:14:38.115Z,9244
2016-09-16T11:15:38.446Z,9736
2016-09-16T11:16:38.446Z,9860
2016-09-16T11:17:38.129Z,9784
2016-09-16T11:18:38.140Z,9260
2016-09-16T11:19:38.144Z,8424
2016-09-16T11:20:38.144Z,7812
2016-09-16T11:21:38.130Z,7184
2016-09-16T11:22:38.124Z,6868
2016-09-16T11:23:38.142Z,6984
2016-09-16T11:24:38.132Z,7544
2016-09-16T11:25:38.477Z,8096
2016-09-16T11:26:38.138Z,8544
2016-09-16T11:27:38.159Z,8764
2016-09-16T11:28:38.145Z,8612
2016-09-16T11:29:38.163Z,8548
2016-09-16T11:30:38.165Z,8752
2016-09-16T11:31:38.363Z,8728
2016-09-16T11:32:38.149Z,8536
2016-09-16T11:33:38.153Z,8596
2016-09-16T11:34:38.153Z,8600
2016-09-16T11:35:38.157Z,8744
2016-09-16T11:36:38.164Z,8952
2016-09-16T11:37:38.183Z,9040
2016-09-16T11:38:38.503Z,9024
2016-09-16T11:39:38.177Z,8756
2016-09-16T11:40:38.160Z,8560
2016-09-16T11:41:38.175Z,8784
2016-09-16T11:42:38.182Z,9196
2016-09-16T11:43:38.178Z,9768
2016-09-16T11:44:38.171Z,10196
2016-09-16T11:45:38.178Z,10004
2016-09-16T11:46:38.171Z,9572
2016-09-16T11:47:38.184Z,8972
2016-09-16T11:48:38.177Z,8432
2016-09-16T11:49:53.100Z,8008
2016-09-16T11:50:38.180Z,7968
2016-09-16T11:51:38.179Z,7864
2016-09-16T11:52:38.503Z,7696
2016-09-16T11:53:38.197Z,7692
2016-09-16T11:54:38.193Z,7676
2016-09-16T11:55:38.200Z,7572
2016-09-16T11:56:38.207Z,7560
2016-09-16T11:57:38.211Z,7520
2016-09-16T11:58:38.253Z,7384
2016-09-16T11:59:38.196Z,7012
2016-09-16T12:00:38.195Z,6516
2016-09-16T12:01:38.210Z,6040
2016-09-16T12:02:38.203Z,5804
2016-09-16T12:03:38.215Z,5692
2016-09-16T12:04:38.231Z,5632
2016-09-16T12:05:38.215Z,5620
2016-09-16T12:06:38.222Z,5660
2016-09-16T12:07:38.217Z,5780
2016-09-16T12:08:38.540Z,5800
2016-09-16T12:09:38.226Z,5828
2016-09-16T12:10:38.210Z,5920
2016-09-16T12:11:38.231Z,6056
2016-09-16T12:12:38.220Z,6108
2016-09-16T12:13:38.230Z,6012
2016-09-16T12:14:38.245Z,5680
2016-09-16T12:15:38.242Z,5424
2016-09-16T12:16:39.393Z,5300
2016-09-16T12:17:38.438Z,5244
2016-09-16T12:18:38.236Z,5204
2016-09-16T12:19:38.235Z,5128
2016-09-16T12:20:38.240Z,4988
2016-09-16T12:21:38.242Z,4940
2016-09-16T12:22:38.245Z,4868
2016-09-16T12:23:38.245Z,4772
2016-09-16T12:24:38.239Z,4812
2016-09-16T12:25:38.251Z,5204
2016-09-16T12:26:38.261Z,5884
2016-09-16T12:27:38.253Z,6456
2016-09-16T12:28:38.262Z,7124
2016-09-16T12:29:38.251Z,7132
2016-09-16T12:30:38.261Z,7752
2016-09-16T12:31:38.256Z,6972
2016-09-16T12:32:38.271Z,6900
2016-09-16T12:33:38.277Z,7040
2016-09-16T12:34:38.275Z,6964
2016-09-16T12:35:38.246Z,7444
2016-09-16T12:36:38.251Z,8224
2016-09-16T12:37:38.260Z,9000
2016-09-16T12:38:38.252Z,8708
2016-09-16T12:39:38.258Z,7604
2016-09-16T12:40:38.259Z,6920
2016-09-16T12:41:38.252Z,6408
2016-09-16T12:42:38.277Z,6232
2016-09-16T12:43:38.262Z,5976
2016-09-16T12:44:38.286Z,6156
2016-09-16T12:45:38.269Z,6156
2016-09-16T12:46:38.584Z,6016
2016-09-16T12:47:38.268Z,6072
2016-09-16T12:48:38.303Z,6352
2016-09-16T12:49:38.276Z,6700
2016-09-16T12:50:38.283Z,6720
2016-09-16T12:51:38.350Z,6932
2016-09-16T12:52:38.289Z,7316
2016-09-16T12:53:38.310Z,7496
2016-09-16T12:54:38.304Z,7396
2016-09-16T12:55:38.294Z,7196
2016-09-16T12:56:38.319Z,7036
2016-09-16T12:57:38.289Z,6768
2016-09-16T12:58:38.296Z,6496
2016-09-16T12:59:38.295Z,6264
2016-09-16T13:00:38.608Z,6120
2016-09-16T13:01:38.307Z,6328
2016-09-16T13:02:38.310Z,6592
2016-09-16T13:03:38.307Z,6740
2016-09-16T13:04:38.321Z,7076
2016-09-16T13:05:38.306Z,7512
2016-09-16T13:06:38.313Z,8084
2016-09-16T13:07:38.319Z,8600
2016-09-16T13:08:38.318Z,9112
2016-09-16T13:09:38.309Z,9144
2016-09-16T13:10:38.311Z,9244
2016-09-16T13:11:38.644Z,9308
2016-09-16T13:12:38.321Z,9416
2016-09-16T13:13:38.328Z,9184
2016-09-16T13:14:38.346Z,9240
2016-09-16T13:15:38.641Z,8984
2016-09-16T13:16:38.321Z,8888
2016-09-16T13:17:38.335Z,8964
2016-09-16T13:18:38.540Z,8964
2016-09-16T13:19:38.325Z,8732
2016-09-16T13:20:38.333Z,8468
2016-09-16T13:21:38.331Z,8100
2016-09-16T13:22:38.343Z,7676
2016-09-16T13:23:38.666Z,7484
2016-09-16T13:24:38.341Z,7464
2016-09-16T13:25:38.346Z,7444
2016-09-16T13:26:38.354Z,7336
2016-09-16T13:27:38.347Z,6988
2016-09-16T13:28:38.355Z,6684
2016-09-16T13:29:38.345Z,6452
2016-09-16T13:30:38.351Z,6188
2016-09-16T13:31:38.359Z,6168
2016-09-16T13:32:38.364Z,6408
2016-09-16T13:33:38.351Z,6684
2016-09-16T13:34:38.776Z,6948
2016-09-16T13:35:38.398Z,7056
2016-09-16T13:36:38.358Z,7288
2016-09-16T13:37:38.774Z,7480
2016-09-16T13:38:38.513Z,7732
2016-09-16T13:39:38.365Z,8140
2016-09-16T13:40:38.367Z,7884
2016-09-16T13:41:38.390Z,7684
2016-09-16T13:42:40.591Z,7352
2016-09-16T13:43:38.508Z,6976
2016-09-16T13:44:39.002Z,6844
2016-09-16T13:45:54.234Z,6740